Buoy 41938

sailwx.info

Track history (hours):
 
Tides and Currents Weather Stations Pressure Air Temp Water Temp Dewpoint Dewpoint Depression Visibility Wind Speed Wind Dir Waves Ship Positions

Drifting buoy 41938

Last reported at 2014-Nov-24 22:00 UTC. Time now 2014-Nov-24 22:38 UTC.
Position N 34°00' W 062°28'.

Barometer 1028.1 mb
Water temperature 23.3 ° C

Date/timePositionNaut miles runAvg speedWind from/ knotsBaromVisibWave heightAir tempDewpointWater temp
2014-Nov-24 22:00N 34°00' W 062°28'0 0.0 1028.1 23.3
2014-Nov-24 21:00N 34°00' W 062°28'0 0.5 1027.9 23.3
2014-Nov-24 20:00N 34°00' W 062°29'2 1.6 1027.4 23.3
2014-Nov-24 19:00N 34°01' W 062°30'2 2.3 1027.0 23.3
2014-Nov-24 18:00N 34°02' W 062°32'0 0.0 1027.7 23.3
2014-Nov-24 17:00N 34°02' W 062°32'2 1.2 1027.9 23.3
2014-Nov-24 15:00N 34°04' W 062°34'6 6.5 1029.2 23.4
2014-Nov-24 14:00N 34°10' W 062°37'0 0.0 1029.3 23.3
2014-Nov-24 11:00N 34°10' W 062°37'2 1.6 1028.7 23.3
2014-Nov-24 10:00N 34°11' W 062°38'3 3.0 1028.8 23.3
2014-Nov-24 09:00N 34°14' W 062°39'0 0.0 1028.8 23.3
2014-Nov-24 08:00N 34°14' W 062°39'2 2.5 1028.8 23.3
2014-Nov-24 07:00N 34°17' W 062°40'0 0.0 1028.8 23.3
2014-Nov-24 06:00N 34°17' W 062°40'7 1.7 1029.0 23.3
2014-Nov-24 02:00N 34°23' W 062°41'3 3.0 1029.8 23.4
2014-Nov-24 01:00N 34°26' W 062°41'4 3.6 1029.4 23.4
2014-Nov-24 00:00N 34°30' W 062°41'0 0.2 1029.2 23.4
2014-Nov-23 23:00N 34°30' W 062°41'1 0.6 1029.1 23.4
2014-Nov-23 22:00N 34°30' W 062°42'2 2.5 1028.7 23.4
2014-Nov-23 21:00N 34°32' W 062°41'2 2.5 1028.4 23.4
2014-Nov-23 20:00N 34°35' W 062°42'1 0.6 1028.0 23.4
2014-Nov-23 19:00N 34°35' W 062°42'2 2.4 1028.1 23.4
2014-Nov-23 18:00N 34°38' W 062°42'0 0.5 1028.5 23.4
2014-Nov-23 17:00N 34°38' W 062°41'4 2.1 1029.3 23.4
2014-Nov-23 15:00N 34°42' W 062°41'1 1.2 1030.6 23.4
2014-Nov-23 14:00N 34°43' W 062°41'2 1.9 1030.5 23.4
2014-Nov-23 13:00N 34°45' W 062°41'3 2.6 1030.1 23.4
2014-Nov-23 12:00N 34°47' W 062°39'0 0.2 1029.8 23.4
2014-Nov-23 11:00N 34°47' W 062°39'1 1.3 1029.2 23.4
2014-Nov-23 10:00N 34°49' W 062°38'4 4.1 1029.0 23.4
2014-Nov-23 09:00N 34°52' W 062°36'0 0.5 1028.9 23.4
2014-Nov-23 08:00N 34°52' W 062°35'3 2.6 1028.7 23.4
2014-Nov-23 07:00N 34°55' W 062°34'6 6.3 1029.0 23.4
2014-Nov-23 06:00N 35°01' W 062°32'6 6.5 1029.2 23.4
2014-Nov-23 05:00N 34°55' W 062°35'6 2.2 1029.0 23.4
2014-Nov-23 02:00N 35°01' W 062°32'2 2.1 1029.0 23.4
2014-Nov-23 01:00N 35°02' W 062°31'0 0.0 1029.0 23.4
2014-Nov-23 00:00N 35°02' W 062°31'3 2.9 1028.9 23.4
2014-Nov-22 23:00N 35°05' W 062°29'3 2.7 1028.8 23.4
2014-Nov-22 22:00N 35°07' W 062°27'1 0.8 1028.3 23.4
2014-Nov-22 21:00N 35°07' W 062°28'3 2.7 1028.1 23.5
2014-Nov-22 20:00N 35°08' W 062°25'1 0.8 1027.7 23.4
2014-Nov-22 19:00N 35°08' W 062°24'6 3.0 1027.1 23.4
2014-Nov-22 17:00N 35°13' W 062°20'0 0.0 1027.2 23.5
2014-Nov-22 15:00N 35°13' W 062°20'2 1.5 1027.8 23.5
2014-Nov-22 14:00N 35°14' W 062°19'4 3.6 1027.6 23.5
2014-Nov-22 13:00N 35°17' W 062°16'0 0.0 1026.9 23.5
2014-Nov-22 11:00N 35°17' W 062°16'2 2.3 1024.9 23.4
2014-Nov-22 10:00N 35°19' W 062°14'1 0.7 1024.2 23.4
2014-Nov-22 09:00N 35°19' W 062°14'4 4.2 1023.1 23.5
2014-Nov-22 08:00N 35°23' W 062°14'0 0.0 1022.1 23.6
2014-Nov-22 07:00N 35°23' W 062°14'5 5.5 1021.6 23.6
2014-Nov-22 06:00N 35°29' W 062°13'5 5.3 1020.6 23.7
2014-Nov-22 05:00N 35°24' W 062°14'5 1.8 1019.9 24.0
2014-Nov-22 02:00N 35°29' W 062°13'4 4.2 1018.0 24.2
2014-Nov-22 01:00N 35°33' W 062°12'0 0.0 1017.2 24.3
2014-Nov-22 00:00N 35°33' W 062°12'0 0.0 1016.9 24.3
2014-Nov-21 23:00N 35°33' W 062°12'0 0.0 1016.4 24.3
2014-Nov-21 22:00N 35°33' W 062°12'1 0.8 1015.8 24.3
2014-Nov-21 21:00N 35°34' W 062°13'1 0.5 1014.7 24.2
2014-Nov-21 19:00N 35°34' W 062°14'1 0.6 1014.1 24.1
2014-Nov-21 17:00N 35°35' W 062°14'2 1.2 1014.5 24.1
2014-Nov-21 15:00N 35°37' W 062°16'1 0.8 1015.7 24.1
2014-Nov-21 14:00N 35°37' W 062°17'2 0.7 1016.0 24.1
2014-Nov-21 11:00N 35°36' W 062°19'2 2.0 1014.5 24.0
2014-Nov-21 10:00N 35°36' W 062°22'0 0.0 1014.7 24.1
2014-Nov-21 09:00N 35°36' W 062°22'1 1.3 1015.2 24.2
2014-Nov-21 08:00N 35°35' W 062°22'1 1.0 1015.8 24.1
2014-Nov-21 07:00N 35°35' W 062°23'0 0.0 1016.7 23.8
2014-Nov-21 06:00N 35°35' W 062°23'0 0.0 1017.0 23.9
2014-Nov-21 05:00N 35°35' W 062°23'3 0.8 1017.4 23.9
2014-Nov-21 02:00N 35°35' W 062°26'1 0.8 1019.0 23.8
2014-Nov-21 01:00N 35°35' W 062°27'0 0.5 1019.5 23.8
2014-Nov-21 00:00N 35°35' W 062°28'1 1.5 1019.5 23.8
2014-Nov-20 23:00N 35°36' W 062°26'2 1.7 1019.6 23.8
2014-Nov-20 22:00N 35°37' W 062°28'1 1.5 1019.5 24.0
2014-Nov-20 21:00N 35°38' W 062°28'0 0.4 1019.5 24.1
2014-Nov-20 20:00N 35°38' W 062°28'2 2.3 1019.7 24.2
2014-Nov-20 19:00N 35°40' W 062°30'0 0.0 1020.0 24.2
2014-Nov-20 18:00N 35°40' W 062°30'0 0.1 1020.4 24.3
2014-Nov-20 17:00N 35°40' W 062°30'3 1.7 1021.0 24.3
2014-Nov-20 15:00N 35°43' W 062°33'3 3.4 1022.6 24.2
2014-Nov-20 14:00N 35°44' W 062°37'1 0.3 1021.9 24.3
2014-Nov-20 10:00N 35°45' W 062°38'1 1.0 1020.4 24.3
2014-Nov-20 09:00N 35°45' W 062°39'0 0.5 1019.5 24.3
2014-Nov-20 08:00N 35°45' W 062°40'3 1.7 1020.9 24.3
2014-Nov-20 06:00N 35°45' W 062°44'1 0.1 1022.6 24.3
2014-Nov-20 02:00N 35°46' W 062°44'1 1.0 1023.0 24.3
2014-Nov-20 01:00N 35°46' W 062°45'2 2.3 1022.6 24.4
2014-Nov-20 00:00N 35°47' W 062°47'0 0.0 1022.7 24.4
2014-Nov-19 23:00N 35°47' W 062°47'0 0.4 1021.8 24.4
2014-Nov-19 22:00N 35°47' W 062°48'1 1.2 1021.7 24.4
2014-Nov-19 21:00N 35°47' W 062°49'1 1.0 1021.5 24.4
2014-Nov-19 20:00N 35°47' W 062°50'2 1.5 1021.0 24.4
2014-Nov-19 19:00N 35°49' W 062°52'4 3.9 1020.2 24.4
2014-Nov-19 18:00N 35°48' W 062°56'0 0.0 1019.4 24.4
2014-Nov-19 17:00N 35°48' W 062°56'5 1.7 1019.6 24.4
2014-Nov-19 14:00N 35°50' W 063°02'0 0.0 1018.4 24.1
2014-Nov-19 11:00N 35°50' W 063°02'3 3.0 1015.8 24.2
2014-Nov-19 10:00N 35°52' W 063°05'0 0.3 1014.5 24.1
2014-Nov-19 09:00N 35°52' W 063°05'4 3.6 1013.0 24.0
2014-Nov-19 08:00N 35°55' W 063°08'5 2.6 1012.7 24.0
2014-Nov-19 06:00N 35°56' W 063°14'0 0.0 1011.1 24.7
2014-Nov-19 03:00N 35°56' W 063°14'0 0.0 1010.8 24.8
2014-Nov-19 02:00N 35°56' W 063°14'1 1.0 1011.5 24.7
2014-Nov-19 01:00N 35°56' W 063°15'2 1.6 1012.0 24.6
2014-Nov-19 00:00N 35°57' W 063°17'5 2.7 1011.8 24.4
2014-Nov-18 22:00N 35°57' W 063°23'0 0.0 1012.0 24.2
2014-Nov-18 21:00N 35°57' W 063°23'2 1.6 1011.9 24.1
2014-Nov-18 20:00N 35°56' W 063°25'5 2.3 1011.6 24.1
2014-Nov-18 18:00N 35°56' W 063°31'4 1.9 1012.2 24.6
2014-Nov-18 16:00N 35°55' W 063°35'4 4.3 1012.7 24.8
2014-Nov-18 15:00N 35°53' W 063°40'3 2.7 1014.5 25.0
2014-Nov-18 14:00N 35°52' W 063°43'0 0.1 1014.3 25.1
2014-Nov-18 13:00N 35°52' W 063°43'4 2.1 1014.4 25.2
2014-Nov-18 11:00N 35°49' W 063°46'2 2.3 1015.7 25.2
2014-Nov-18 10:00N 35°47' W 063°49'0 0.5 1016.0 25.1
2014-Nov-18 09:00N 35°47' W 063°48'3 3.0 1016.6 25.2
2014-Nov-18 08:00N 35°46' W 063°51'7 6.7 1016.9 25.2
2014-Nov-18 07:00N 35°40' W 063°55'7 6.7 1017.0 25.2
2014-Nov-18 06:00N 35°46' W 063°51'7 6.7 1018.0 25.3
2014-Nov-18 05:00N 35°40' W 063°55'1 0.4 1018.6 25.2
2014-Nov-18 02:00N 35°38' W 063°55'1 1.4 1020.4 25.3
2014-Nov-18 01:00N 35°37' W 063°56'4 4.3 1021.2 25.3
2014-Nov-18 00:00N 35°33' W 063°57'4 4.4 1021.4 25.3
2014-Nov-17 23:00N 35°37' W 063°55'6 6.3 1022.0 25.3
2014-Nov-17 22:00N 35°31' W 063°58'0 0.0 1022.2 25.3
2014-Nov-17 20:00N 35°31' W 063°58'3 3.0 1022.9 25.4
2014-Nov-17 19:00N 35°28' W 063°58'0 0.0 1023.4 25.4
2014-Nov-17 18:00N 35°28' W 063°58'2 2.4 1023.7 25.5
2014-Nov-17 17:00N 35°26' W 063°59'2 2.4 1024.8 25.5
2014-Nov-17 16:00N 35°23' W 063°59'1 1.2 1025.7 25.5
2014-Nov-17 15:00N 35°22' W 063°59'0 0.0 1026.7 25.6
2014-Nov-17 14:00N 35°22' W 063°59'6 6.2 1027.2 25.6
2014-Nov-17 13:00N 35°16' W 063°57'0 0.2 1027.0 25.5
2014-Nov-17 10:00N 35°16' W 063°56'4 4.4 1026.6 25.5
2014-Nov-17 09:00N 35°13' W 063°53'0 0.0 1026.3 25.5
2014-Nov-17 08:00N 35°13' W 063°53'2 2.3 1026.4 25.5
2014-Nov-17 07:00N 35°11' W 063°51'0 0.0 1027.0 25.5
2014-Nov-17 06:00N 35°11' W 063°51'0 0.0 1027.3 25.5
2014-Nov-17 05:00N 35°11' W 063°51'6 2.0 1027.7 25.6
2014-Nov-17 02:00N 35°08' W 063°45'0 0.0 1029.1 25.6
2014-Nov-17 01:00N 35°08' W 063°45'2 1.9 1029.0 25.6
2014-Nov-17 00:00N 35°07' W 063°43'1 1.0 1029.0 25.6
2014-Nov-16 23:00N 35°07' W 063°42'3 2.5 1028.7 25.6
2014-Nov-16 22:00N 35°06' W 063°39'1 1.4 1028.1 25.6
2014-Nov-16 21:00N 35°05' W 063°38'1 0.5 1027.6 25.6
2014-Nov-16 20:00N 35°05' W 063°37'4 2.2 1027.4 25.6
2014-Nov-16 18:00N 35°03' W 063°32'0 0.0 1027.0 25.6
2014-Nov-16 17:00N 35°03' W 063°32'2 2.1 1027.1 25.6
2014-Nov-16 16:00N 35°02' W 063°30'2 1.6 1027.6 25.6
2014-Nov-16 15:00N 35°02' W 063°28'6 1.1 1028.1 25.6
2014-Nov-16 10:00N 35°01' W 063°22'3 3.5 1024.9 25.6
2014-Nov-16 09:00N 35°01' W 063°17'0 0.0 1023.9 25.5
2014-Nov-16 08:00N 35°01' W 063°17'2 1.6 1023.2 25.5
2014-Nov-16 07:00N 35°01' W 063°16'3 1.3 1022.8 25.5
2014-Nov-16 05:00N 35°00' W 063°13'1 0.3 1022.0 25.5
2014-Nov-16 02:00N 35°00' W 063°11'0 0.5 1020.8 25.5
2014-Nov-16 01:00N 35°00' W 063°11'1 1.0 1019.9 25.6
2014-Nov-16 00:00N 35°00' W 063°10'0 0.2 1019.5 25.6
2014-Nov-15 23:00N 34°60' W 063°10'3 2.6 1018.6 25.6
2014-Nov-15 22:00N 34°59' W 063°07'0 0.5 1017.7 25.6
2014-Nov-15 21:00N 34°59' W 063°06'0 0.5 1016.6 25.6
2014-Nov-15 20:00N 34°59' W 063°07'2 2.1 1015.7 25.6
2014-Nov-15 19:00N 35°00' W 063°04'2 1.6 1014.7 25.6
2014-Nov-15 18:00N 34°59' W 063°02'0 0.0 1014.2 25.5
2014-Nov-15 17:00N 34°59' W 063°02'2 1.2 1013.7 25.5
2014-Nov-15 15:00N 34°59' W 062°59'1 0.6 1013.5 25.4
2014-Nov-15 14:00N 34°59' W 062°59'3 1.0 1013.2 25.4
2014-Nov-15 11:00N 34°58' W 062°56'2 2.3 1012.1 25.5
2014-Nov-15 10:00N 34°57' W 062°53'2 2.0 1011.4 25.5
2014-Nov-15 09:00N 34°57' W 062°51'0 0.2 1011.2 25.5
2014-Nov-15 08:00N 34°57' W 062°51'2 1.7 1011.0 25.5
2014-Nov-15 07:00N 34°56' W 062°49'0 0.0 1010.5 25.5
2014-Nov-15 06:00N 34°56' W 062°49'4 3.8 1010.8 25.6
2014-Nov-15 05:00N 34°54' W 062°46'2 0.5 1011.3 25.6
2014-Nov-15 02:00N 34°55' W 062°44'2 2.3 1012.1 25.6
2014-Nov-15 01:00N 34°53' W 062°41'0 0.0 1012.0 25.5
2014-Nov-15 00:00N 34°53' W 062°41'3 3.5 1012.0 25.6
2014-Nov-14 23:00N 34°53' W 062°37'0 0.0 1011.8 25.6
2014-Nov-14 22:00N 34°53' W 062°37'   1011.4 25.6
Track history (hours):
 
Tides and Currents Weather Stations Pressure Air Temp Water Temp Dewpoint Dewpoint Depression Visibility Wind Speed Wind Dir Waves Ship Positions

Drifting buoy 41938

Last reported at 2014-Nov-24 22:00 UTC. Time now 2014-Nov-24 22:38 UTC.
Position N 34°00' W 062°28'.

Barometer 1028.1 mb
Water temperature 23.3 ° C

Date/timePositionNaut miles runAvg speedWind from/ knotsBaromVisibWave heightAir tempDewpointWater temp
2014-Nov-24 22:00N 34°00' W 062°28'0 0.0 1028.1 23.3
2014-Nov-24 21:00N 34°00' W 062°28'0 0.5 1027.9 23.3
2014-Nov-24 20:00N 34°00' W 062°29'2 1.6 1027.4 23.3
2014-Nov-24 19:00N 34°01' W 062°30'2 2.3 1027.0 23.3
2014-Nov-24 18:00N 34°02' W 062°32'0 0.0 1027.7 23.3
2014-Nov-24 17:00N 34°02' W 062°32'2 1.2 1027.9 23.3
2014-Nov-24 15:00N 34°04' W 062°34'6 6.5 1029.2 23.4
2014-Nov-24 14:00N 34°10' W 062°37'0 0.0 1029.3 23.3
2014-Nov-24 11:00N 34°10' W 062°37'2 1.6 1028.7 23.3
2014-Nov-24 10:00N 34°11' W 062°38'3 3.0 1028.8 23.3
2014-Nov-24 09:00N 34°14' W 062°39'0 0.0 1028.8 23.3
2014-Nov-24 08:00N 34°14' W 062°39'2 2.5 1028.8 23.3
2014-Nov-24 07:00N 34°17' W 062°40'0 0.0 1028.8 23.3
2014-Nov-24 06:00N 34°17' W 062°40'7 1.7 1029.0 23.3
2014-Nov-24 02:00N 34°23' W 062°41'3 3.0 1029.8 23.4
2014-Nov-24 01:00N 34°26' W 062°41'4 3.6 1029.4 23.4
2014-Nov-24 00:00N 34°30' W 062°41'0 0.2 1029.2 23.4
2014-Nov-23 23:00N 34°30' W 062°41'1 0.6 1029.1 23.4
2014-Nov-23 22:00N 34°30' W 062°42'2 2.5 1028.7 23.4
2014-Nov-23 21:00N 34°32' W 062°41'2 2.5 1028.4 23.4
2014-Nov-23 20:00N 34°35' W 062°42'1 0.6 1028.0 23.4
2014-Nov-23 19:00N 34°35' W 062°42'2 2.4 1028.1 23.4
2014-Nov-23 18:00N 34°38' W 062°42'0 0.5 1028.5 23.4
2014-Nov-23 17:00N 34°38' W 062°41'4 2.1 1029.3 23.4
2014-Nov-23 15:00N 34°42' W 062°41'1 1.2 1030.6 23.4
2014-Nov-23 14:00N 34°43' W 062°41'2 1.9 1030.5 23.4
2014-Nov-23 13:00N 34°45' W 062°41'3 2.6 1030.1 23.4
2014-Nov-23 12:00N 34°47' W 062°39'0 0.2 1029.8 23.4
2014-Nov-23 11:00N 34°47' W 062°39'1 1.3 1029.2 23.4
2014-Nov-23 10:00N 34°49' W 062°38'4 4.1 1029.0 23.4
2014-Nov-23 09:00N 34°52' W 062°36'0 0.5 1028.9 23.4
2014-Nov-23 08:00N 34°52' W 062°35'3 2.6 1028.7 23.4
2014-Nov-23 07:00N 34°55' W 062°34'6 6.3 1029.0 23.4
2014-Nov-23 06:00N 35°01' W 062°32'6 6.5 1029.2 23.4
2014-Nov-23 05:00N 34°55' W 062°35'6 2.2 1029.0 23.4
2014-Nov-23 02:00N 35°01' W 062°32'2 2.1 1029.0 23.4
2014-Nov-23 01:00N 35°02' W 062°31'0 0.0 1029.0 23.4
2014-Nov-23 00:00N 35°02' W 062°31'3 2.9 1028.9 23.4
2014-Nov-22 23:00N 35°05' W 062°29'3 2.7 1028.8 23.4
2014-Nov-22 22:00N 35°07' W 062°27'1 0.8 1028.3 23.4
2014-Nov-22 21:00N 35°07' W 062°28'3 2.7 1028.1 23.5
2014-Nov-22 20:00N 35°08' W 062°25'1 0.8 1027.7 23.4
2014-Nov-22 19:00N 35°08' W 062°24'6 3.0 1027.1 23.4
2014-Nov-22 17:00N 35°13' W 062°20'0 0.0 1027.2 23.5
2014-Nov-22 15:00N 35°13' W 062°20'2 1.5 1027.8 23.5
2014-Nov-22 14:00N 35°14' W 062°19'4 3.6 1027.6 23.5
2014-Nov-22 13:00N 35°17' W 062°16'0 0.0 1026.9 23.5
2014-Nov-22 11:00N 35°17' W 062°16'2 2.3 1024.9 23.4
2014-Nov-22 10:00N 35°19' W 062°14'1 0.7 1024.2 23.4
2014-Nov-22 09:00N 35°19' W 062°14'4 4.2 1023.1 23.5
2014-Nov-22 08:00N 35°23' W 062°14'0 0.0 1022.1 23.6
2014-Nov-22 07:00N 35°23' W 062°14'5 5.5 1021.6 23.6
2014-Nov-22 06:00N 35°29' W 062°13'5 5.3 1020.6 23.7
2014-Nov-22 05:00N 35°24' W 062°14'5 1.8 1019.9 24.0
2014-Nov-22 02:00N 35°29' W 062°13'4 4.2 1018.0 24.2
2014-Nov-22 01:00N 35°33' W 062°12'0 0.0 1017.2 24.3
2014-Nov-22 00:00N 35°33' W 062°12'0 0.0 1016.9 24.3
2014-Nov-21 23:00N 35°33' W 062°12'0 0.0 1016.4 24.3
2014-Nov-21 22:00N 35°33' W 062°12'1 0.8 1015.8 24.3
2014-Nov-21 21:00N 35°34' W 062°13'1 0.5 1014.7 24.2
2014-Nov-21 19:00N 35°34' W 062°14'1 0.6 1014.1 24.1
2014-Nov-21 17:00N 35°35' W 062°14'2 1.2 1014.5 24.1
2014-Nov-21 15:00N 35°37' W 062°16'1 0.8 1015.7 24.1
2014-Nov-21 14:00N 35°37' W 062°17'2 0.7 1016.0 24.1
2014-Nov-21 11:00N 35°36' W 062°19'2 2.0 1014.5 24.0
2014-Nov-21 10:00N 35°36' W 062°22'0 0.0 1014.7 24.1
2014-Nov-21 09:00N 35°36' W 062°22'1 1.3 1015.2 24.2
2014-Nov-21 08:00N 35°35' W 062°22'1 1.0 1015.8 24.1
2014-Nov-21 07:00N 35°35' W 062°23'0 0.0 1016.7 23.8
2014-Nov-21 06:00N 35°35' W 062°23'0 0.0 1017.0 23.9
2014-Nov-21 05:00N 35°35' W 062°23'3 0.8 1017.4 23.9
2014-Nov-21 02:00N 35°35' W 062°26'1 0.8 1019.0 23.8
2014-Nov-21 01:00N 35°35' W 062°27'0 0.5 1019.5 23.8
2014-Nov-21 00:00N 35°35' W 062°28'1 1.5 1019.5 23.8
2014-Nov-20 23:00N 35°36' W 062°26'2 1.7 1019.6 23.8
2014-Nov-20 22:00N 35°37' W 062°28'1 1.5 1019.5 24.0
2014-Nov-20 21:00N 35°38' W 062°28'0 0.4 1019.5 24.1
2014-Nov-20 20:00N 35°38' W 062°28'2 2.3 1019.7 24.2
2014-Nov-20 19:00N 35°40' W 062°30'0 0.0 1020.0 24.2
2014-Nov-20 18:00N 35°40' W 062°30'0 0.1 1020.4 24.3
2014-Nov-20 17:00N 35°40' W 062°30'3 1.7 1021.0 24.3
2014-Nov-20 15:00N 35°43' W 062°33'3 3.4 1022.6 24.2
2014-Nov-20 14:00N 35°44' W 062°37'1 0.3 1021.9 24.3
2014-Nov-20 10:00N 35°45' W 062°38'1 1.0 1020.4 24.3
2014-Nov-20 09:00N 35°45' W 062°39'0 0.5 1019.5 24.3
2014-Nov-20 08:00N 35°45' W 062°40'3 1.7 1020.9 24.3
2014-Nov-20 06:00N 35°45' W 062°44'1 0.1 1022.6 24.3
2014-Nov-20 02:00N 35°46' W 062°44'1 1.0 1023.0 24.3
2014-Nov-20 01:00N 35°46' W 062°45'2 2.3 1022.6 24.4
2014-Nov-20 00:00N 35°47' W 062°47'0 0.0 1022.7 24.4
2014-Nov-19 23:00N 35°47' W 062°47'0 0.4 1021.8 24.4
2014-Nov-19 22:00N 35°47' W 062°48'1 1.2 1021.7 24.4
2014-Nov-19 21:00N 35°47' W 062°49'1 1.0 1021.5 24.4
2014-Nov-19 20:00N 35°47' W 062°50'2 1.5 1021.0 24.4
2014-Nov-19 19:00N 35°49' W 062°52'4 3.9 1020.2 24.4
2014-Nov-19 18:00N 35°48' W 062°56'0 0.0 1019.4 24.4
2014-Nov-19 17:00N 35°48' W 062°56'5 1.7 1019.6 24.4
2014-Nov-19 14:00N 35°50' W 063°02'0 0.0 1018.4 24.1
2014-Nov-19 11:00N 35°50' W 063°02'3 3.0 1015.8 24.2
2014-Nov-19 10:00N 35°52' W 063°05'0 0.3 1014.5 24.1
2014-Nov-19 09:00N 35°52' W 063°05'4 3.6 1013.0 24.0
2014-Nov-19 08:00N 35°55' W 063°08'5 2.6 1012.7 24.0
2014-Nov-19 06:00N 35°56' W 063°14'0 0.0 1011.1 24.7
2014-Nov-19 03:00N 35°56' W 063°14'0 0.0 1010.8 24.8
2014-Nov-19 02:00N 35°56' W 063°14'1 1.0 1011.5 24.7
2014-Nov-19 01:00N 35°56' W 063°15'2 1.6 1012.0 24.6
2014-Nov-19 00:00N 35°57' W 063°17'5 2.7 1011.8 24.4
2014-Nov-18 22:00N 35°57' W 063°23'0 0.0 1012.0 24.2
2014-Nov-18 21:00N 35°57' W 063°23'2 1.6 1011.9 24.1
2014-Nov-18 20:00N 35°56' W 063°25'5 2.3 1011.6 24.1
2014-Nov-18 18:00N 35°56' W 063°31'4 1.9 1012.2 24.6
2014-Nov-18 16:00N 35°55' W 063°35'4 4.3 1012.7 24.8
2014-Nov-18 15:00N 35°53' W 063°40'3 2.7 1014.5 25.0
2014-Nov-18 14:00N 35°52' W 063°43'0 0.1 1014.3 25.1
2014-Nov-18 13:00N 35°52' W 063°43'4 2.1 1014.4 25.2
2014-Nov-18 11:00N 35°49' W 063°46'2 2.3 1015.7 25.2
2014-Nov-18 10:00N 35°47' W 063°49'0 0.5 1016.0 25.1
2014-Nov-18 09:00N 35°47' W 063°48'3 3.0 1016.6 25.2
2014-Nov-18 08:00N 35°46' W 063°51'7 6.7 1016.9 25.2
2014-Nov-18 07:00N 35°40' W 063°55'7 6.7 1017.0 25.2
2014-Nov-18 06:00N 35°46' W 063°51'7 6.7 1018.0 25.3
2014-Nov-18 05:00N 35°40' W 063°55'1 0.4 1018.6 25.2
2014-Nov-18 02:00N 35°38' W 063°55'1 1.4 1020.4 25.3
2014-Nov-18 01:00N 35°37' W 063°56'4 4.3 1021.2 25.3
2014-Nov-18 00:00N 35°33' W 063°57'4 4.4 1021.4 25.3
2014-Nov-17 23:00N 35°37' W 063°55'6 6.3 1022.0 25.3
2014-Nov-17 22:00N 35°31' W 063°58'0 0.0 1022.2 25.3
2014-Nov-17 20:00N 35°31' W 063°58'3 3.0 1022.9 25.4
2014-Nov-17 19:00N 35°28' W 063°58'0 0.0 1023.4 25.4
2014-Nov-17 18:00N 35°28' W 063°58'2 2.4 1023.7 25.5
2014-Nov-17 17:00N 35°26' W 063°59'2 2.4 1024.8 25.5
2014-Nov-17 16:00N 35°23' W 063°59'1 1.2 1025.7 25.5
2014-Nov-17 15:00N 35°22' W 063°59'0 0.0 1026.7 25.6
2014-Nov-17 14:00N 35°22' W 063°59'6 6.2 1027.2 25.6
2014-Nov-17 13:00N 35°16' W 063°57'0 0.2 1027.0 25.5
2014-Nov-17 10:00N 35°16' W 063°56'4 4.4 1026.6 25.5
2014-Nov-17 09:00N 35°13' W 063°53'0 0.0 1026.3 25.5
2014-Nov-17 08:00N 35°13' W 063°53'2 2.3 1026.4 25.5
2014-Nov-17 07:00N 35°11' W 063°51'0 0.0 1027.0 25.5
2014-Nov-17 06:00N 35°11' W 063°51'0 0.0 1027.3 25.5
2014-Nov-17 05:00N 35°11' W 063°51'6 2.0 1027.7 25.6
2014-Nov-17 02:00N 35°08' W 063°45'0 0.0 1029.1 25.6
2014-Nov-17 01:00N 35°08' W 063°45'2 1.9 1029.0 25.6
2014-Nov-17 00:00N 35°07' W 063°43'1 1.0 1029.0 25.6
2014-Nov-16 23:00N 35°07' W 063°42'3 2.5 1028.7 25.6
2014-Nov-16 22:00N 35°06' W 063°39'1 1.4 1028.1 25.6
2014-Nov-16 21:00N 35°05' W 063°38'1 0.5 1027.6 25.6
2014-Nov-16 20:00N 35°05' W 063°37'4 2.2 1027.4 25.6
2014-Nov-16 18:00N 35°03' W 063°32'0 0.0 1027.0 25.6
2014-Nov-16 17:00N 35°03' W 063°32'2 2.1 1027.1 25.6
2014-Nov-16 16:00N 35°02' W 063°30'2 1.6 1027.6 25.6
2014-Nov-16 15:00N 35°02' W 063°28'6 1.1 1028.1 25.6
2014-Nov-16 10:00N 35°01' W 063°22'3 3.5 1024.9 25.6
2014-Nov-16 09:00N 35°01' W 063°17'0 0.0 1023.9 25.5
2014-Nov-16 08:00N 35°01' W 063°17'2 1.6 1023.2 25.5
2014-Nov-16 07:00N 35°01' W 063°16'3 1.3 1022.8 25.5
2014-Nov-16 05:00N 35°00' W 063°13'1 0.3 1022.0 25.5
2014-Nov-16 02:00N 35°00' W 063°11'0 0.5 1020.8 25.5
2014-Nov-16 01:00N 35°00' W 063°11'1 1.0 1019.9 25.6
2014-Nov-16 00:00N 35°00' W 063°10'0 0.2 1019.5 25.6
2014-Nov-15 23:00N 34°60' W 063°10'3 2.6 1018.6 25.6
2014-Nov-15 22:00N 34°59' W 063°07'0 0.5 1017.7 25.6
2014-Nov-15 21:00N 34°59' W 063°06'0 0.5 1016.6 25.6
2014-Nov-15 20:00N 34°59' W 063°07'2 2.1 1015.7 25.6
2014-Nov-15 19:00N 35°00' W 063°04'2 1.6 1014.7 25.6
2014-Nov-15 18:00N 34°59' W 063°02'0 0.0 1014.2 25.5
2014-Nov-15 17:00N 34°59' W 063°02'2 1.2 1013.7 25.5
2014-Nov-15 15:00N 34°59' W 062°59'1 0.6 1013.5 25.4
2014-Nov-15 14:00N 34°59' W 062°59'3 1.0 1013.2 25.4
2014-Nov-15 11:00N 34°58' W 062°56'2 2.3 1012.1 25.5
2014-Nov-15 10:00N 34°57' W 062°53'2 2.0 1011.4 25.5
2014-Nov-15 09:00N 34°57' W 062°51'0 0.2 1011.2 25.5
2014-Nov-15 08:00N 34°57' W 062°51'2 1.7 1011.0 25.5
2014-Nov-15 07:00N 34°56' W 062°49'0 0.0 1010.5 25.5
2014-Nov-15 06:00N 34°56' W 062°49'4 3.8 1010.8 25.6
2014-Nov-15 05:00N 34°54' W 062°46'2 0.5 1011.3 25.6
2014-Nov-15 02:00N 34°55' W 062°44'2 2.3 1012.1 25.6
2014-Nov-15 01:00N 34°53' W 062°41'0 0.0 1012.0 25.5
2014-Nov-15 00:00N 34°53' W 062°41'3 3.5 1012.0 25.6
2014-Nov-14 23:00N 34°53' W 062°37'0 0.0 1011.8 25.6
2014-Nov-14 22:00N 34°53' W 062°37'   1011.4 25.6

Dump ship's entire track history